Weather observations for the past three days for
Hoquiam, Bowerman Airport
Metric (Imperial)
Date Time (pdt) Wind (kph) Vis. (km) Weather Sky Cond. Temperature (ºC) Relative Humidity Wind Chill (°C) Heat Index (°C) Pressure Precipitation (cm)
Air Dwpt 6 hour altimeter (cm) sea level (mb) 1 hr 3 hr 6 hr
Max. Min.
09 23:53 W 11 16.09 Fair CLR 11.7 8.9 83% 76.33 1017.8
09 22:53 NW 6 16.09 Fair CLR 11.7 8.9 18.9 11.1 83% 76.3 1017.7
09 21:53 NW 9 16.09 Fair CLR 12.2 8.9 80% 76.33 1017.8
09 20:53 NW 9 G 28 16.09 Fair CLR 13.3 9.4 77% 76.28 1017.2
09 19:53 W 15 16.09 Fair CLR 16.1 10.6 70% 76.23 1016.7
09 18:53 W 11 16.09 Fair CLR 16.7 11.1 70% 76.25 1016.8
09 17:53 W 20 16.09 Fair CLR 17.2 11.7 70% 76.28 1017.3
09 16:53 W 15 16.09 Fair CLR 18.3 12.2 19.4 13.9 68% 76.3 1017.7
09 15:53 W 19 16.09 Fair CLR 18.9 12.8 68% 76.38 1018.6
09 14:53 S 6 16.09 Fair CLR 19.4 8.3 49% 76.43 1019.1
09 13:53 SE 9 16.09 Fair CLR 18.3 10 59% 76.48 1019.8
09 12:53 SE 9 16.09 Fair CLR 17.2 10 63% 76.5 1020.4
09 11:53 S 6 16.09 Fair CLR 16.1 10.6 70% 76.56 1021.0
09 10:53 S 6 16.09 Fair CLR 13.9 10.6 13.9 11.1 81% 76.61 1021.5
09 09:53 Vrbl 6 16.09 Overcast OVC011 13.9 10 78% 76.61 1021.6
09 08:53 NE 6 16.09 Overcast OVC010 12.8 10 83% 76.63 1021.8
09 07:53 NE 6 16.09 Overcast OVC008 11.7 9.4 86% 76.63 1022.1
09 06:53 NE 7 16.09 Overcast OVC011 11.7 9.4 86% 76.63 1022.1
09 05:53 E 6 16.09 Overcast OVC018 11.1 10 93% 76.66 1022.3
09 04:53 E 9 16.09 Overcast OVC016 11.1 10 12.2 10.6 93% 76.68 1022.6
09 03:53 E 9 16.09 Overcast FEW003 OVC015 11.1 10.6 97% 76.71 1023.0
09 02:53 NE 7 16.09 Mostly Cloudy BKN016 11.1 10 93% 76.71 1023.0
09 01:53 E 7 16.09 Overcast OVC014 12.2 10.6 90% 76.71 1023.1
09 00:53 E 7 16.09 Overcast OVC007 12.2 11.1 93% 76.73 1023.3
08 23:53 SE 9 16.09 Overcast OVC010 12.2 10.6 90% 76.73 1023.4
08 22:53 SE 7 16.09 Overcast OVC012 12.2 10.6 13.3 11.7 90% 76.73 1023.3
08 21:53 S 6 16.09 Overcast OVC009 12.2 10.6 90% 76.73 1023.3
08 20:53 S 6 12.87 Overcast BKN009 OVC014 12.2 10.6 90% 76.71 1023.1
08 19:53 SW 7 11.27 Overcast OVC019 12.2 10 87% 76.71 1023.0
08 18:53 SW 11 16.09 Overcast BKN018 OVC023 12.8 10 83% 76.71 1023.0
08 17:53 W 9 16.09 Overcast SCT017 BKN022 OVC032 12.8 10 83% 76.71 1023.1
08 16:53 SW 9 16.09 Overcast BKN018 OVC026 12.2 9.4 13.9 12.2 83% 76.73 1023.3
08 15:53 SW 24 16.09 Overcast OVC023 13.3 8.9 75% 76.73 1023.2
08 14:53 SW 20 16.09 Overcast SCT026 OVC032 13.9 8.3 69% 76.71 1023.0
08 13:53 W 22 16.09 Overcast BKN031 OVC038 13.3 7.8 70% 76.68 1022.6
08 12:53 W 15 16.09 Overcast OVC035 13.9 7.2 64% 76.66 1022.1
08 11:53 W 15 16.09 Overcast OVC038 12.8 6.7 67% 76.61 1021.8
08 10:53 SW 11 16.09 Overcast FEW024 SCT030 OVC038 12.2 6.7 12.2 10.6 69% 76.61 1021.7
08 09:53 W 13 16.09 Overcast BKN027 OVC033 11.7 6.1 69% 76.58 1021.3
08 08:53 SW 15 16.09 Overcast BKN028 OVC035 11.1 5.6 69% 76.56 1020.9
08 07:53 S 11 16.09 Overcast OVC031 10.6 6.1 74% 76.5 1020.1
08 06:53 W 17 16.09 Overcast OVC031 10.6 5.6 71% 76.48 1019.8
08 05:53 SW 20 16.09 Overcast BKN025 OVC031 10.6 5.6 71% 76.43 1019.4
08 04:53 W 19 16.09 Overcast OVC026 10.6 5.6 10.6 8.9 71% 76.43 1019.1
08 03:53 SW 19 16.09 Overcast OVC025 10.6 6.1 74% 76.4 1018.9
08 02:53 SW 11 16.09 Overcast OVC021 10 7.2 83% 9 76.35 1018.3
08 01:53 SW 13 16.09 A Few Clouds FEW015 10 7.8 86% 8 76.35 1018.2
08 00:53 SW 9 16.09 Fair CLR 10 8.3 89% 9 76.33 1017.9
07 23:53 NW 6 16.09 Fair CLR 9.4 6.7 83% 76.33 1018.1
07 22:53 Calm 16.09 Fair CLR 9.4 6.7 13.3 9.4 83% 76.35 1018.1
07 21:53 Calm 16.09 Fair CLR 10 6.7 80% 76.35 1018.4
07 20:53 NW 6 16.09 Fair CLR 10.6 6.7 77% 76.38 1018.4
07 19:53 W 15 16.09 Fair CLR 11.7 6.1 69% 76.33 1018.0
07 18:53 W 15 16.09 Fair CLR 12.2 6.7 69% 76.38 1018.5
07 17:53 W 19 16.09 Fair CLR 12.8 6.1 64% 76.43 1019.1
07 16:53 W 17 16.09 Fair CLR 12.8 6.1 13.9 12.2 64% 76.43 1019.4
07 15:53 W 19 16.09 Fair CLR 13.3 6.7 65% 76.48 1019.9
07 14:53 W 22 16.09 Fair CLR 13.3 6.7 65% 76.5 1020.3
07 13:53 W 26 16.09 Fair CLR 13.3 7.2 67% 76.5 1020.3
07 12:53 W 17 16.09 Fair CLR 13.3 7.2 67% 76.53 1020.7
07 11:53 SW 13 16.09 Overcast OVC034 12.8 6.7 67% 76.56 1021.0
07 10:53 SW 11 16.09 Fair CLR 12.2 6.1 12.8 9.4 67% 76.58 1021.3
07 09:53 SW 13 16.09 Mostly Cloudy BKN027 12.2 5.6 64% 76.58 1021.4
07 08:53 W 9 16.09 Partly Cloudy SCT027 11.7 5 64% 76.61 1021.6
07 07:53 N 9 16.09 A Few Clouds FEW027 11.1 4.4 64% 76.61 1021.6
07 06:53 N 7 16.09 Mostly Cloudy BKN027 10.6 4.4 66% 76.58 1021.4
07 05:53 NW 7 16.09 Overcast OVC027 10 5 71% 9 76.61 1021.5
07 04:53 NW 9 16.09 Overcast OVC028 10 4.4 11.1 10 68% 9 76.61 1021.7
07 03:53 NW 9 16.09 Overcast OVC027 10.6 5 69% 76.63 1021.9
07 02:53 NW 7 16.09 Overcast OVC028 10.6 5 69% 76.66 1022.2
07 01:53 NW 11 16.09 Overcast OVC027 10.6 5.6 71% 76.66 1022.4
07 00:53 NW 7 16.09 Overcast OVC027 10.6 6.1 74% 76.68 1022.5
Date Time (pdt) Wind (kph) Vis. (km) Weather Sky Cond. Air Dwpt Max. Min. Relative Humidity Wind Chill (°C) Heat Index (°C) altimeter (cm) sea level (mb) 1 hr 3 hr 6 hr
6 hour
Temperature (ºC) Pressure Precipitation (cm)